createdAt,value
2019-02-19T00:00:05.133Z,3.90
2019-02-19T00:02:36.928Z,3.90
2019-02-19T00:05:18.061Z,3.90
2019-02-19T00:07:56.609Z,4.00
2019-02-19T00:10:28.379Z,4.00
2019-02-19T00:12:56.972Z,4.00
2019-02-19T00:15:27.198Z,4.10
2019-02-19T00:17:59.583Z,4.20
2019-02-19T00:20:38.595Z,4.30
2019-02-19T00:23:10.055Z,4.30
2019-02-19T00:25:38.207Z,4.60
2019-02-19T00:28:06.135Z,4.90
2019-02-19T00:30:35.662Z,5.30
2019-02-19T00:33:07.169Z,5.70
2019-02-19T00:36:08.799Z,6.10
2019-02-19T00:38:48.710Z,6.40
2019-02-19T00:41:38.973Z,6.70
2019-02-19T00:44:45.552Z,6.90
2019-02-19T00:49:59.252Z,7.10
2019-02-19T00:51:36.746Z,7.20
2019-02-19T00:54:20.864Z,7.20
2019-02-19T00:56:59.617Z,7.20
2019-02-19T01:02:04.704Z,7.30
2019-02-19T01:04:53.261Z,7.30
2019-02-19T01:08:20.267Z,7.30
2019-02-19T01:10:56.895Z,7.40
2019-02-19T01:13:45.009Z,7.40
2019-02-19T01:16:26.029Z,7.50
2019-02-19T01:19:42.543Z,7.50
2019-02-19T01:22:54.835Z,7.50
2019-02-19T01:29:38.923Z,7.60
2019-02-19T01:32:27.282Z,7.60
2019-02-19T01:35:03.771Z,7.60
2019-02-19T01:37:40.747Z,7.60
2019-02-19T01:40:38.255Z,7.60
2019-02-19T01:43:09.009Z,7.60
2019-02-19T01:45:48.815Z,7.60
2019-02-19T01:48:51.379Z,7.60
2019-02-19T01:55:30.658Z,7.50
2019-02-19T01:58:22.169Z,7.40
2019-02-19T02:01:18.816Z,7.30
2019-02-19T02:03:55.581Z,7.30
2019-02-19T02:06:23.524Z,7.30
2019-02-19T02:08:56.102Z,7.20
2019-02-19T02:11:24.028Z,7.20
2019-02-19T02:13:54.803Z,7.20
2019-02-19T02:16:31.857Z,7.20
2019-02-19T02:18:59.904Z,7.20
2019-02-19T02:22:06.188Z,7.20
2019-02-19T02:24:50.949Z,7.20
2019-02-19T02:28:19.216Z,7.10
2019-02-19T02:30:08.597Z,7.10
2019-02-19T02:32:36.235Z,7.00
2019-02-19T02:35:06.447Z,7.00
2019-02-19T02:37:35.507Z,7.00
2019-02-19T02:40:03.658Z,7.00
2019-02-19T02:42:35.647Z,7.10
2019-02-19T02:45:14.524Z,7.00
2019-02-19T02:47:44.816Z,7.00
2019-02-19T02:50:20.308Z,7.10
2019-02-19T02:52:53.125Z,7.10
2019-02-19T02:55:20.709Z,7.10
2019-02-19T02:57:48.146Z,7.20
2019-02-19T03:00:16.803Z,7.10
2019-02-19T03:02:48.386Z,7.10
2019-02-19T03:05:25.406Z,7.10
2019-02-19T03:10:52.228Z,7.10
2019-02-19T03:13:23.305Z,7.10
2019-02-19T03:16:05.772Z,7.10
2019-02-19T03:19:03.001Z,7.10
2019-02-19T03:21:44.895Z,7.10
2019-02-19T03:24:34.217Z,7.10
2019-02-19T03:27:05.008Z,7.20
2019-02-19T03:32:44.676Z,7.10
2019-02-19T03:35:13.269Z,7.10
2019-02-19T03:37:50.102Z,7.10
2019-02-19T03:40:47.799Z,7.20
2019-02-19T03:43:24.968Z,7.10
2019-02-19T03:45:59.810Z,7.20
2019-02-19T03:48:44.172Z,7.20
2019-02-19T03:51:12.414Z,7.20
2019-02-19T03:53:58.316Z,7.20
2019-02-19T03:56:24.733Z,7.20
2019-02-19T03:58:52.675Z,7.20
2019-02-19T04:01:31.789Z,7.10
2019-02-19T04:04:02.031Z,7.10
2019-02-19T04:06:35.235Z,7.10
2019-02-19T04:09:06.281Z,7.10
2019-02-19T04:11:34.075Z,7.00
2019-02-19T04:14:08.876Z,7.00
2019-02-19T04:16:40.699Z,7.00
2019-02-19T04:19:08.501Z,7.00
2019-02-19T04:21:38.439Z,7.00
2019-02-19T04:24:17.720Z,7.00
2019-02-19T04:27:21.712Z,7.00
2019-02-19T04:29:51.052Z,6.90
2019-02-19T04:32:29.318Z,6.90
2019-02-19T04:35:00.307Z,6.90
2019-02-19T04:37:55.395Z,6.90
2019-02-19T04:40:29.036Z,6.90
2019-02-19T04:43:28.878Z,6.80
2019-02-19T04:46:31.789Z,6.80
2019-02-19T04:49:07.202Z,6.70
2019-02-19T04:51:51.941Z,6.70
2019-02-19T04:54:30.048Z,6.70
2019-02-19T04:57:03.152Z,6.70
2019-02-19T04:59:36.955Z,6.70
2019-02-19T05:02:09.578Z,6.70
2019-02-19T05:04:51.778Z,6.70
2019-02-19T05:08:07.701Z,6.70
2019-02-19T05:14:06.002Z,6.70
2019-02-19T05:17:05.033Z,6.70
2019-02-19T05:19:46.467Z,6.70
2019-02-19T05:22:54.626Z,6.80
2019-02-19T05:26:18.640Z,6.80
2019-02-19T05:28:30.899Z,6.70
2019-02-19T05:31:18.191Z,6.70
2019-02-19T05:33:55.190Z,6.70
2019-02-19T05:36:25.971Z,6.70
2019-02-19T05:38:53.936Z,6.60
2019-02-19T05:41:27.097Z,6.60
2019-02-19T05:43:57.676Z,6.60
2019-02-19T05:46:49.609Z,6.60
2019-02-19T05:49:16.687Z,6.50
2019-02-19T05:51:49.218Z,6.50
2019-02-19T05:54:20.134Z,6.50
2019-02-19T05:56:53.279Z,6.50
2019-02-19T05:59:42.059Z,6.50
2019-02-19T06:02:36.964Z,6.50
2019-02-19T06:05:48.468Z,6.50
2019-02-19T06:08:17.020Z,6.50
2019-02-19T06:10:51.919Z,6.50
2019-02-19T06:13:24.942Z,6.50
2019-02-19T06:15:59.716Z,6.50
2019-02-19T06:18:55.503Z,6.50
2019-02-19T06:21:28.357Z,6.50
2019-02-19T06:23:56.136Z,6.50
2019-02-19T06:27:17.052Z,6.40
2019-02-19T06:30:01.235Z,6.40
2019-02-19T06:32:31.320Z,6.50
2019-02-19T06:35:00.782Z,6.50
2019-02-19T06:37:28.330Z,6.50
2019-02-19T06:39:55.692Z,6.50
2019-02-19T06:42:23.148Z,6.50
2019-02-19T06:44:50.601Z,6.50
2019-02-19T06:47:17.999Z,6.50
2019-02-19T06:49:45.516Z,6.50
2019-02-19T06:52:13.073Z,6.50
2019-02-19T06:54:40.409Z,6.50
2019-02-19T06:57:07.770Z,6.60
2019-02-19T06:59:35.094Z,6.60
2019-02-19T07:02:20.317Z,6.70
2019-02-19T07:04:56.846Z,6.70
2019-02-19T07:07:24.174Z,6.80
2019-02-19T07:09:51.639Z,6.90
2019-02-19T07:12:19.106Z,6.90
2019-02-19T07:14:46.704Z,6.90
2019-02-19T07:17:15.902Z,6.90
2019-02-19T07:19:43.456Z,7.00
2019-02-19T07:22:10.802Z,7.00
2019-02-19T07:24:38.495Z,7.00
2019-02-19T07:27:06.154Z,7.00
2019-02-19T07:29:33.742Z,7.00
2019-02-19T07:32:01.383Z,7.00
2019-02-19T07:34:29.044Z,7.10
2019-02-19T07:36:56.945Z,7.10
2019-02-19T07:39:24.382Z,7.10
2019-02-19T07:41:52.116Z,7.10
2019-02-19T07:44:19.399Z,7.10
2019-02-19T07:46:46.879Z,7.10
2019-02-19T07:49:14.516Z,7.10
2019-02-19T07:51:42.751Z,7.10
2019-02-19T07:54:10.217Z,7.10
2019-02-19T07:56:37.665Z,7.10
2019-02-19T07:59:05.076Z,7.10
2019-02-19T08:01:32.794Z,7.10
2019-02-19T08:04:00.295Z,7.10
2019-02-19T08:06:27.847Z,7.00
2019-02-19T08:08:55.288Z,7.00
2019-02-19T08:11:22.673Z,7.00
2019-02-19T08:13:50.059Z,6.90
2019-02-19T08:16:18.995Z,6.90
2019-02-19T08:18:46.452Z,6.80
2019-02-19T08:21:14.156Z,6.80
2019-02-19T08:23:41.607Z,6.80
2019-02-19T08:26:09.024Z,6.70
2019-02-19T08:28:36.393Z,6.70
2019-02-19T08:31:03.749Z,6.70
2019-02-19T08:33:31.174Z,6.60
2019-02-19T08:35:58.694Z,6.60
2019-02-19T08:38:26.058Z,6.60
2019-02-19T08:40:53.438Z,6.60
2019-02-19T08:43:21.029Z,6.60
2019-02-19T08:45:48.327Z,6.60
2019-02-19T08:48:15.697Z,6.50
2019-02-19T08:50:43.477Z,6.50
2019-02-19T08:53:10.878Z,6.50
2019-02-19T08:55:38.225Z,6.50
2019-02-19T08:58:05.598Z,6.50
2019-02-19T09:00:33.296Z,6.50
2019-02-19T09:03:00.985Z,6.50
2019-02-19T09:05:28.565Z,6.50
2019-02-19T09:07:55.966Z,6.50
2019-02-19T09:10:23.357Z,6.50
2019-02-19T09:12:50.763Z,6.50
2019-02-19T09:15:18.081Z,6.50
2019-02-19T09:17:51.675Z,6.50
2019-02-19T09:20:14.737Z,6.60
2019-02-19T09:22:42.094Z,6.60
2019-02-19T09:25:09.442Z,6.70
2019-02-19T09:27:36.769Z,6.70
2019-02-19T09:30:05.098Z,6.70
2019-02-19T09:32:32.528Z,6.70
2019-02-19T09:34:59.871Z,6.80
2019-02-19T09:37:27.305Z,6.80
2019-02-19T09:39:54.897Z,6.80
2019-02-19T09:42:22.432Z,6.90
2019-02-19T09:44:49.718Z,6.90
2019-02-19T09:47:17.324Z,6.90
2019-02-19T09:49:44.648Z,6.80
2019-02-19T09:52:12.096Z,6.90
2019-02-19T09:54:39.805Z,6.90
2019-02-19T09:57:07.206Z,6.90
2019-02-19T09:59:35.481Z,6.90
2019-02-19T10:02:03.051Z,6.90
2019-02-19T10:04:30.752Z,7.00
2019-02-19T10:06:58.460Z,7.00
2019-02-19T10:09:25.963Z,7.10
2019-02-19T10:11:53.506Z,7.10
2019-02-19T10:14:20.953Z,7.20
2019-02-19T10:16:48.377Z,7.20
2019-02-19T10:19:16.047Z,7.30
2019-02-19T10:21:43.546Z,7.40
2019-02-19T10:24:11.052Z,7.50
2019-02-19T10:26:38.460Z,7.60
2019-02-19T10:29:05.879Z,7.60
2019-02-19T10:31:33.170Z,7.70
2019-02-19T10:34:00.663Z,7.80
2019-02-19T10:36:28.126Z,7.80
2019-02-19T10:38:55.583Z,7.90
2019-02-19T10:41:23.161Z,8.00
2019-02-19T10:43:50.486Z,8.00
2019-02-19T10:46:18.157Z,8.10
2019-02-19T10:48:45.610Z,8.20
2019-02-19T10:51:13.011Z,8.20
2019-02-19T10:53:40.380Z,8.30
2019-02-19T10:56:07.808Z,8.40
2019-02-19T10:58:35.263Z,8.50
2019-02-19T11:01:02.712Z,8.60
2019-02-19T11:03:30.399Z,8.70
2019-02-19T11:05:57.984Z,8.90
2019-02-19T11:08:25.476Z,9.00
2019-02-19T11:10:52.890Z,9.00
2019-02-19T11:13:20.676Z,9.10
2019-02-19T11:15:48.246Z,9.20
2019-02-19T11:18:15.465Z,9.30
2019-02-19T11:20:43.051Z,9.30
2019-02-19T11:23:10.461Z,9.40
2019-02-19T11:25:37.895Z,9.40
2019-02-19T11:28:05.206Z,9.50
2019-02-19T11:30:32.950Z,9.50
2019-02-19T11:33:00.376Z,9.40
2019-02-19T11:35:28.068Z,9.50
2019-02-19T11:37:55.746Z,9.60
2019-02-19T11:40:23.199Z,9.70
2019-02-19T11:42:50.879Z,10.00
2019-02-19T11:45:18.351Z,10.20
2019-02-19T11:47:45.980Z,10.40
2019-02-19T11:50:13.934Z,10.70
2019-02-19T11:52:41.447Z,10.80
2019-02-19T11:55:10.406Z,11.00
2019-02-19T11:57:37.826Z,11.30
2019-02-19T12:00:06.367Z,11.50
2019-02-19T12:02:33.788Z,11.70
2019-02-19T12:05:01.490Z,11.90
2019-02-19T12:07:29.004Z,12.00
2019-02-19T12:09:56.421Z,12.10
2019-02-19T12:12:23.713Z,12.00
2019-02-19T12:14:51.255Z,12.20
2019-02-19T12:17:18.641Z,12.30
2019-02-19T12:19:46.006Z,12.30
2019-02-19T12:22:13.412Z,12.30
2019-02-19T12:24:41.041Z,12.20
2019-02-19T12:27:08.930Z,12.30
2019-02-19T12:29:36.711Z,12.30
2019-02-19T12:32:04.044Z,12.20
2019-02-19T12:34:31.650Z,12.10
2019-02-19T12:36:59.648Z,12.00
2019-02-19T12:39:27.015Z,12.20
2019-02-19T12:41:54.338Z,12.40
2019-02-19T12:44:21.682Z,12.30
2019-02-19T12:46:49.286Z,12.20
2019-02-19T12:49:16.647Z,12.10
2019-02-19T12:51:44.297Z,11.90
2019-02-19T12:54:11.910Z,11.80
2019-02-19T12:56:39.397Z,11.60
2019-02-19T12:59:06.709Z,11.50
2019-02-19T13:01:34.040Z,11.60
2019-02-19T13:04:01.468Z,11.90
2019-02-19T13:06:28.942Z,12.00
2019-02-19T13:08:56.627Z,12.20
2019-02-19T13:11:24.156Z,12.10
2019-02-19T13:13:51.855Z,12.10
2019-02-19T13:16:19.340Z,12.10
2019-02-19T13:18:47.326Z,12.00
2019-02-19T13:21:14.667Z,11.90
2019-02-19T13:23:41.993Z,12.00
2019-02-19T13:26:09.684Z,12.10
2019-02-19T13:28:37.865Z,12.30
2019-02-19T13:31:05.552Z,12.30
2019-02-19T13:33:33.256Z,12.40
2019-02-19T13:36:00.896Z,12.70
2019-02-19T13:38:28.683Z,12.70
2019-02-19T13:40:56.546Z,12.80
2019-02-19T13:43:24.116Z,13.00
2019-02-19T13:45:51.555Z,13.10
2019-02-19T13:48:19.585Z,13.10
2019-02-19T13:50:47.773Z,13.20
2019-02-19T13:53:29.634Z,13.20
2019-02-19T13:55:58.611Z,13.10
2019-02-19T13:58:27.996Z,12.70
2019-02-19T14:00:56.010Z,12.50
2019-02-19T14:03:23.780Z,12.30
2019-02-19T14:05:51.407Z,12.30
2019-02-19T14:08:20.413Z,12.60
2019-02-19T14:10:48.400Z,12.70
2019-02-19T14:13:16.343Z,12.60
2019-02-19T14:16:09.148Z,12.50
2019-02-19T14:18:53.996Z,12.40
2019-02-19T14:21:55.964Z,12.50
2019-02-19T14:24:33.728Z,12.60
2019-02-19T14:27:32.937Z,12.80
2019-02-19T14:30:20.399Z,13.00
2019-02-19T14:33:08.080Z,13.00
2019-02-19T14:35:53.822Z,12.90
2019-02-19T14:38:39.534Z,12.80
2019-02-19T14:41:26.897Z,12.70
2019-02-19T14:44:12.657Z,12.80
2019-02-19T14:47:11.768Z,12.90
2019-02-19T14:49:51.244Z,13.00
2019-02-19T14:52:36.731Z,12.80
2019-02-19T14:55:14.275Z,12.90
2019-02-19T14:58:16.483Z,12.70
2019-02-19T15:01:12.487Z,12.80
2019-02-19T15:04:12.408Z,12.70
2019-02-19T15:07:05.609Z,12.80
2019-02-19T15:09:52.498Z,12.90
2019-02-19T15:12:28.851Z,12.80
2019-02-19T15:15:21.647Z,12.80
2019-02-19T15:18:08.908Z,12.90
2019-02-19T15:20:56.358Z,12.90
2019-02-19T15:23:46.460Z,13.00
2019-02-19T15:26:33.480Z,13.20
2019-02-19T15:29:18.883Z,13.20
2019-02-19T15:32:14.993Z,13.10
2019-02-19T15:35:14.204Z,13.20
2019-02-19T15:38:13.059Z,13.20
2019-02-19T15:41:06.015Z,13.20
2019-02-19T15:43:51.450Z,13.30
2019-02-19T15:46:32.935Z,13.30
2019-02-19T15:49:18.187Z,13.10
2019-02-19T15:52:00.017Z,13.10
2019-02-19T15:54:52.799Z,13.30
2019-02-19T15:57:38.645Z,13.30
2019-02-19T16:00:37.748Z,13.20
2019-02-19T16:03:19.674Z,13.20
2019-02-19T16:05:58.043Z,13.30
2019-02-19T16:08:50.842Z,13.20
2019-02-19T16:11:36.475Z,13.10
2019-02-19T16:14:16.838Z,12.80
2019-02-19T16:16:58.190Z,12.60
2019-02-19T16:19:32.616Z,12.30
2019-02-19T16:22:28.838Z,12.00
2019-02-19T16:25:18.602Z,11.80
2019-02-19T16:28:11.187Z,11.40
2019-02-19T16:30:47.428Z,11.10
2019-02-19T16:33:37.116Z,10.90
2019-02-19T16:36:10.852Z,10.70
2019-02-19T16:38:50.467Z,10.60
2019-02-19T16:41:25.769Z,10.50
2019-02-19T16:44:02.341Z,10.30
2019-02-19T16:46:55.397Z,10.20
2019-02-19T16:50:07.349Z,10.10
2019-02-19T16:52:52.198Z,10.00
2019-02-19T16:55:38.271Z,9.80
2019-02-19T16:58:35.334Z,9.70
2019-02-19T17:01:43.093Z,9.60
2019-02-19T17:04:19.915Z,9.40
2019-02-19T17:07:10.063Z,9.30
2019-02-19T17:09:46.497Z,9.20
2019-02-19T17:12:31.896Z,9.10
2019-02-19T17:15:17.457Z,9.00
2019-02-19T17:17:58.003Z,8.90
2019-02-19T17:20:35.156Z,8.80
2019-02-19T17:23:11.885Z,8.70
2019-02-19T17:26:11.555Z,8.70
2019-02-19T17:29:01.698Z,8.60
2019-02-19T17:31:54.562Z,8.60
2019-02-19T17:34:40.560Z,8.50
2019-02-19T17:37:17.425Z,8.40
2019-02-19T17:40:01.432Z,8.30
2019-02-19T17:42:54.270Z,8.20
2019-02-19T17:45:50.872Z,8.10
2019-02-19T17:48:40.894Z,8.00
2019-02-19T17:51:43.151Z,8.00
2019-02-19T17:54:32.704Z,8.00
2019-02-19T17:57:08.736Z,7.90
2019-02-19T17:59:50.686Z,7.80
2019-02-19T18:02:39.095Z,7.80
2019-02-19T18:05:19.081Z,7.70
2019-02-19T18:08:06.156Z,7.60
2019-02-19T18:10:51.228Z,7.50
2019-02-19T18:13:53.332Z,7.40
2019-02-19T18:16:58.618Z,7.40
2019-02-19T18:19:26.484Z,7.20
2019-02-19T18:21:54.613Z,7.20
2019-02-19T18:24:22.389Z,7.10
2019-02-19T18:26:50.659Z,7.00
2019-02-19T18:29:18.557Z,7.00
2019-02-19T18:31:46.494Z,7.00
2019-02-19T18:34:14.536Z,6.90
2019-02-19T18:36:42.036Z,6.90
2019-02-19T18:39:09.490Z,6.90
2019-02-19T18:41:37.174Z,6.90
2019-02-19T18:44:04.566Z,6.90
2019-02-19T18:46:32.274Z,6.90
2019-02-19T18:49:00.194Z,7.00
2019-02-19T18:51:27.970Z,6.90
2019-02-19T18:53:55.506Z,7.00
2019-02-19T18:56:23.871Z,6.90
2019-02-19T18:58:51.713Z,6.90
2019-02-19T19:01:19.741Z,6.90
2019-02-19T19:03:47.803Z,6.90
2019-02-19T19:06:15.512Z,6.80
2019-02-19T19:08:43.221Z,6.80
2019-02-19T19:11:11.092Z,6.80
2019-02-19T19:13:39.597Z,6.80
2019-02-19T19:16:07.092Z,6.70
2019-02-19T19:18:34.538Z,6.80
2019-02-19T19:21:07.943Z,6.80
2019-02-19T19:23:31.538Z,6.80
2019-02-19T19:25:59.407Z,6.80
2019-02-19T19:28:27.072Z,6.80
2019-02-19T19:30:54.553Z,6.80
2019-02-19T19:33:22.235Z,6.80
2019-02-19T19:35:49.824Z,6.80
2019-02-19T19:38:17.240Z,6.80
2019-02-19T19:40:44.726Z,6.80
2019-02-19T19:43:12.134Z,6.80
2019-02-19T19:45:40.036Z,6.70
2019-02-19T19:48:07.816Z,6.70
2019-02-19T19:50:35.777Z,6.70
2019-02-19T19:53:03.736Z,6.70
2019-02-19T19:55:31.585Z,6.60
2019-02-19T19:57:59.542Z,6.60
2019-02-19T20:00:27.721Z,6.60
2019-02-19T20:02:55.160Z,6.60
2019-02-19T20:05:22.728Z,6.50
2019-02-19T20:07:50.365Z,6.50
2019-02-19T20:10:17.820Z,6.50
2019-02-19T20:12:45.384Z,6.50
2019-02-19T20:15:13.112Z,6.50
2019-02-19T20:17:40.706Z,6.50
2019-02-19T20:20:08.162Z,6.50
2019-02-19T20:22:35.977Z,6.50
2019-02-19T20:25:03.581Z,6.50
2019-02-19T20:27:31.139Z,6.50
2019-02-19T20:29:58.933Z,6.40
2019-02-19T20:32:26.340Z,6.40
2019-02-19T20:34:54.012Z,6.40
2019-02-19T20:37:22.209Z,6.40
2019-02-19T20:39:50.162Z,6.40
2019-02-19T20:42:17.732Z,6.40
2019-02-19T20:44:45.261Z,6.40
2019-02-19T20:47:13.002Z,6.30
2019-02-19T20:49:40.529Z,6.30
2019-02-19T20:52:08.238Z,6.30
2019-02-19T20:54:35.761Z,6.30
2019-02-19T20:57:03.318Z,6.30
2019-02-19T20:59:31.753Z,6.20
2019-02-19T21:01:59.546Z,6.20
2019-02-19T21:04:27.583Z,6.20
2019-02-19T21:06:55.457Z,6.10
2019-02-19T21:09:23.503Z,6.20
2019-02-19T21:11:51.985Z,6.10
2019-02-19T21:14:20.247Z,6.20
2019-02-19T21:16:49.509Z,6.10
2019-02-19T21:19:17.611Z,6.20
2019-02-19T21:21:45.361Z,6.10
2019-02-19T21:24:13.517Z,6.10
2019-02-19T21:26:41.735Z,6.10
2019-02-19T21:29:10.144Z,6.00
2019-02-19T21:31:38.328Z,6.00
2019-02-19T21:34:06.664Z,6.00
2019-02-19T21:36:34.615Z,5.90
2019-02-19T21:39:04.167Z,5.90
2019-02-19T21:41:31.649Z,5.90
2019-02-19T21:43:59.116Z,5.90
2019-02-19T21:46:26.497Z,5.90
2019-02-19T21:48:54.078Z,5.80
2019-02-19T21:51:21.701Z,5.80
2019-02-19T21:53:49.894Z,5.70
2019-02-19T21:56:17.406Z,5.70
2019-02-19T21:58:44.775Z,5.60
2019-02-19T22:01:12.565Z,5.60
2019-02-19T22:03:40.351Z,5.50
2019-02-19T22:06:07.804Z,5.50
2019-02-19T22:08:35.483Z,5.60
2019-02-19T22:11:02.901Z,5.50
2019-02-19T22:13:30.566Z,5.50
2019-02-19T22:15:58.082Z,5.40
2019-02-19T22:18:26.775Z,5.40
2019-02-19T22:21:03.664Z,5.30
2019-02-19T22:23:31.418Z,5.30
2019-02-19T22:25:58.890Z,5.30
2019-02-19T22:28:26.322Z,5.30
2019-02-19T22:30:53.884Z,5.30
2019-02-19T22:33:21.378Z,5.30
2019-02-19T22:35:49.219Z,5.30
2019-02-19T22:38:16.719Z,5.30
2019-02-19T22:40:44.162Z,5.30
2019-02-19T22:43:12.290Z,5.30
2019-02-19T22:45:40.061Z,5.20
2019-02-19T22:48:07.699Z,5.20
2019-02-19T22:50:35.570Z,5.10
2019-02-19T22:53:05.982Z,5.10
2019-02-19T22:55:53.264Z,4.90
2019-02-19T22:58:20.825Z,4.80
2019-02-19T23:00:58.252Z,4.60
2019-02-19T23:03:26.282Z,4.50
2019-02-19T23:05:53.750Z,4.30
2019-02-19T23:08:21.886Z,4.20
2019-02-19T23:10:49.532Z,4.10
2019-02-19T23:13:17.700Z,4.00
2019-02-19T23:15:45.215Z,4.10
2019-02-19T23:18:12.727Z,4.10
2019-02-19T23:20:40.212Z,3.90
2019-02-19T23:23:07.982Z,4.00
2019-02-19T23:25:35.699Z,4.00
2019-02-19T23:28:03.283Z,4.00
2019-02-19T23:30:30.752Z,4.00
2019-02-19T23:32:58.150Z,4.00
2019-02-19T23:35:31.528Z,4.00
2019-02-19T23:37:59.228Z,4.00
2019-02-19T23:40:26.690Z,4.00
2019-02-19T23:42:54.170Z,4.00
2019-02-19T23:45:21.742Z,4.00
2019-02-19T23:47:49.288Z,4.00
2019-02-19T23:50:17.168Z,3.90
2019-02-19T23:52:44.598Z,3.90
2019-02-19T23:55:12.320Z,3.70
2019-02-19T23:57:39.746Z,3.60
